Historique des mesures à Cassis (13260), France
Quotidien Résumé Mars 27, 2017 Unités:  US    Métrique   Métrique/US
« Précédent (Jour)
Suivant (Jour) »
Quotidien Hebdomadaire Mensuel Annuel Période au choix
  Maximum: Minimum: Moyenne:
Température: 32 °F 52.2 °F 57.4 °F
Point de rosée: 32 °F 45.7 °F 48 °F
Humidité: Humidity % 55 % 68 %
Vitesse du vent: WindSpeedKMH mph 0.0 mph 2.2 mph
Rafales: WindSpeedGustKMH mph - -
Vent:- - SE
Pression: 0 in 30 in -
Précipitations: 0 in    
Historical Graphs
 
 
Mesures pour : Mars 27, 2017
Heure Temperature Point de rosée Pression Vent Vitesse du vent Rafales Humidité Pluie (par heure) Conditions
32 °F 32 °F 0 in Calm     Humidity % 0 in SoftwareType W/m2
00:11 53.4 °F 47.1 °F 30 in NNE 2.9 mph 2.9 mph 79 % 0 in open2300-1.11 W/m2
01:11 53.2 °F 46.9 °F 30 in Calm   1.4 mph 79 % 0 in open2300-1.11 W/m2
02:11 53.2 °F 47.3 °F 30 in Calm     80 % 0 in open2300-1.11 W/m2
03:11 52.2 °F 46.6 °F 30 in Calm   2.6 mph 81 % 0 in open2300-1.11 W/m2
04:11 52.7 °F 46.8 °F 30 in Calm     80 % 0 in open2300-1.11 W/m2
05:11 53.2 °F 46.6 °F 30 in Calm   4.0 mph 78 % 0 in open2300-1.11 W/m2
06:11 54 °F 47.3 °F 30 in Calm     78 % 0 in open2300-1.11 W/m2
07:11 54.1 °F 46.4 °F 30 in SE 2.6 mph 2.6 mph 75 % 0 in open2300-1.11 W/m2
08:11 54.7 °F 46.2 °F 30.1 in SE 8.7 mph 8.7 mph 73 % 0 in open2300-1.11 W/m2
09:11 56.3 °F 46.9 °F 30.1 in SSE 3.5 mph 9.3 mph 71 % 0 in open2300-1.11 W/m2
10:11 57.9 °F 48.2 °F 30.1 in SE 2.9 mph 6.4 mph 70 % 0 in open2300-1.11 W/m2
11:11 60.4 °F 50.7 °F 30.1 in WSW 3.2 mph 3.2 mph 70 % 0 in open2300-1.11 W/m2
12:11 64.2 °F 53.1 °F 30.1 in NE 2.9 mph 2.9 mph 67 % 0 in open2300-1.11 W/m2
13:11 65.8 °F 53.2 °F 30.1 in SSE 4.0 mph 6.1 mph 64 % 0 in open2300-1.11 W/m2
14:11 65.1 °F 53.4 °F 30.1 in Calm   5.5 mph 66 % 0 in open2300-1.11 W/m2
15:11 64.9 °F 53.2 °F 30.1 in West 14.0 mph 14.0 mph 66 % 0 in open2300-1.11 W/m2
16:11 64.6 °F 51.3 °F 30.1 in SE 1.4 mph 5.8 mph 62 % 0 in open2300-1.11 W/m2
17:11 65.1 °F 49.8 °F 30.1 in NE 2.9 mph 3.5 mph 58 % 0 in open2300-1.11 W/m2
18:11 64.6 °F 47.8 °F 30.1 in Calm   6.1 mph 55 % 0 in open2300-1.11 W/m2
19:11 62.8 °F 49.5 °F 30.1 in WNW 4.0 mph 4.0 mph 62 % 0 in open2300-1.11 W/m2
20:11 60.1 °F 48.7 °F 30.1 in Calm   2.6 mph 66 % 0 in open2300-1.11 W/m2
21:11 57 °F 47.3 °F 30.1 in North 2.6 mph 5.0 mph 70 % 0 in open2300-1.11 W/m2
22:11 55.8 °F 46.6 °F 30.1 in Calm   1.8 mph 71 % 0 in open2300-1.11 W/m2
23:11 54.9 °F 45.7 °F 30.1 in Calm   1.1 mph 71 % 0 in open2300-1.11 W/m2
Observations météo à CASSIS
WU-History script by Weather Underground - 1 mb